Time;durP1;ratioP1;P1;durP2;ratioP2;P2;SDS_P1;SDS_P2;PMS_P1;PMS_P2;Temp;Humidity;BMP_temperature;BMP_pressure;BME280_temperature;BME280_humidity;BME280_pressure;Samples;Min_cycle;Max_cycle;Signal;HPM_P1;HPM_P2
2022/12/05 00:00:59;;;;;;;12.33;4.22;;;;;;;-8.71;100.00;103455.44;1660192;86;21650;-78
2022/12/05 00:03:26;;;;;;;15.08;4.58;;;;;;;-8.79;100.00;103462.30;1659804;86;21108;-78
2022/12/05 00:05:52;;;;;;;17.90;4.28;;;;;;;-8.70;100.00;103451.94;1660286;86;21088;-79
2022/12/05 00:08:18;;;;;;;12.10;4.37;;;;;;;-8.84;100.00;103465.55;1660064;86;21545;-79
2022/12/05 00:10:44;;;;;;;10.82;4.15;;;;;;;-8.83;100.00;103459.41;1661445;86;21500;-78
2022/12/05 00:13:10;;;;;;;13.20;4.12;;;;;;;-8.80;100.00;103452.74;1671815;85;21066;-79
2022/12/05 00:15:39;;;;;;;12.85;4.30;;;;;;;-8.86;100.00;103455.61;1683224;85;20864;-79
2022/12/05 00:18:05;;;;;;;16.23;4.35;;;;;;;-8.77;100.00;103446.55;1683046;85;21038;-78
2022/12/05 00:20:32;;;;;;;15.20;4.47;;;;;;;-8.85;100.00;103444.70;1682955;85;21157;-78
2022/12/05 00:22:58;;;;;;;15.15;4.28;;;;;;;-8.83;100.00;103438.50;1682960;85;21065;-79
2022/12/05 00:25:24;;;;;;;10.30;4.17;;;;;;;-8.96;100.00;103443.84;1673935;83;20986;-78
2022/12/05 00:27:49;;;;;;;10.10;3.62;;;;;;;-8.92;100.00;103437.58;1719092;83;21013;-78
2022/12/05 00:30:16;;;;;;;16.12;4.50;;;;;;;-8.90;100.00;103457.97;1719133;83;20984;-79
2022/12/05 00:32:42;;;;;;;9.93;3.87;;;;;;;-8.97;100.00;103440.81;1719076;83;21039;-78
2022/12/05 00:35:08;;;;;;;17.30;5.00;;;;;;;-8.89;100.00;103437.91;1719005;83;27139;-78
2022/12/05 00:37:34;;;;;;;9.83;4.05;;;;;;;-8.92;100.00;103432.34;1719095;83;20982;-78
2022/12/05 00:40:00;;;;;;;12.40;4.55;;;;;;;-8.92;100.00;103437.11;1719211;83;20888;-78
2022/12/05 00:42:26;;;;;;;14.25;4.37;;;;;;;-8.97;100.00;103438.20;1719115;83;20867;-78
2022/12/05 00:44:52;;;;;;;10.15;3.77;;;;;;;-8.97;100.00;103434.29;1719354;83;21070;-78
2022/12/05 00:47:18;;;;;;;11.60;4.40;;;;;;;-9.01;100.00;103431.42;1719137;83;26654;-79
2022/12/05 00:49:44;;;;;;;10.95;4.58;;;;;;;-9.09;100.00;103426.95;1719175;83;26622;-78
2022/12/05 00:52:10;;;;;;;11.00;4.20;;;;;;;-9.02;100.00;103416.67;1719071;83;21513;-78
2022/12/05 00:54:36;;;;;;;13.00;4.42;;;;;;;-9.07;100.00;103426.44;1719182;83;20960;-78
2022/12/05 00:57:02;;;;;;;12.45;4.40;;;;;;;-9.09;100.00;103424.34;1714548;83;21159;-78
2022/12/05 00:59:28;;;;;;;12.03;4.42;;;;;;;-9.05;100.00;103421.55;1719066;83;20987;-78
2022/12/05 01:01:54;;;;;;;10.05;4.28;;;;;;;-9.10;100.00;103426.56;1719139;83;27602;-78
2022/12/05 01:04:23;;;;;;;9.43;3.60;;;;;;;-9.13;100.00;103425.39;1719073;83;20883;-78
2022/12/05 01:06:56;;;;;;;13.83;4.75;;;;;;;-9.12;100.00;103424.46;1719095;83;20982;-78
2022/12/05 01:09:23;;;;;;;13.60;3.72;;;;;;;-9.13;100.00;103417.09;1717954;82;22073;-78
2022/12/05 01:11:50;;;;;;;9.95;3.98;;;;;;;-9.15;100.00;103421.52;1713746;82;21019;-78
2022/12/05 01:14:19;;;;;;;14.30;4.20;;;;;;;-9.16;100.00;103422.44;1713883;82;21067;-78
2022/12/05 01:16:47;;;;;;;11.90;4.30;;;;;;;-9.14;100.00;103419.32;1714134;82;20992;-78
2022/12/05 01:19:21;;;;;;;15.53;4.22;;;;;;;-9.10;100.00;103413.05;1714019;82;20996;-78
2022/12/05 01:25:27;;;;;;;13.50;4.62;;;;;;;-9.13;100.00;103410.56;1645475;87;21046;-78
2022/12/05 01:27:53;;;;;;;12.45;4.15;;;;;;;-9.22;100.00;103409.63;1645901;87;26497;-78
2022/12/05 01:30:20;;;;;;;11.78;3.95;;;;;;;-9.26;100.00;103405.45;1645815;85;28899;-79
2022/12/05 01:32:46;;;;;;;12.05;4.03;;;;;;;-9.20;100.00;103409.97;1646076;87;21129;-78
2022/12/05 01:35:12;;;;;;;14.45;4.17;;;;;;;-9.12;100.00;103399.66;1646024;87;21086;-79
2022/12/05 01:37:38;;;;;;;11.12;4.53;;;;;;;-9.16;100.00;103403.70;1645906;87;26790;-78
2022/12/05 01:40:07;;;;;;;9.85;4.33;;;;;;;-9.19;100.00;103403.82;1645793;87;26580;-79
2022/12/05 01:42:33;;;;;;;11.63;3.70;;;;;;;-9.25;100.00;103401.92;1646007;87;21026;-79
2022/12/05 01:45:04;;;;;;;16.45;4.62;;;;;;;-9.25;100.00;103400.15;1645953;87;22168;-78
2022/12/05 01:47:34;;;;;;;9.08;3.77;;;;;;;-9.25;100.00;103400.61;1646151;87;21818;-78
2022/12/05 01:50:02;;;;;;;13.48;4.05;;;;;;;-9.23;100.00;103398.34;1646012;87;21008;-78
2022/12/05 01:52:30;;;;;;;10.10;3.15;;;;;;;-9.34;100.00;103390.08;1646169;87;21057;-78
2022/12/05 01:55:01;;;;;;;10.75;3.85;;;;;;;-9.29;100.00;103399.89;1645923;87;21042;-78
2022/12/05 01:57:28;;;;;;;13.58;4.20;;;;;;;-9.23;100.00;103393.11;1645926;86;21104;-79
2022/12/05 01:59:59;;;;;;;12.90;4.12;;;;;;;-9.29;100.00;103396.41;1646115;87;21290;-78
2022/12/05 02:02:27;;;;;;;12.10;4.35;;;;;;;-9.32;100.00;103398.70;1645960;87;21166;-78
2022/12/05 02:05:14;;;;;;;11.10;4.25;;;;;;;-9.30;100.00;103399.94;1646154;85;21010;-78
2022/12/05 02:07:42;;;;;;;10.10;4.28;;;;;;;-9.31;100.00;103395.17;1566630;90;21077;-78
2022/12/05 02:10:09;;;;;;;14.20;4.40;;;;;;;-9.29;100.00;103396.41;1566312;90;21081;-78
2022/12/05 02:12:36;;;;;;;11.78;4.65;;;;;;;-9.35;100.00;103394.04;1566353;91;21628;-78
2022/12/05 02:15:26;;;;;;;14.30;3.90;;;;;;;-9.32;100.00;103390.88;1566421;91;21085;-78
2022/12/05 02:18:17;;;;;;;13.80;4.47;;;;;;;-9.30;100.00;103395.56;1585648;86;20966;-78
2022/12/05 02:21:03;;;;;;;16.65;5.12;;;;;;;-9.32;100.00;103387.39;1655696;86;21022;-79
2022/12/05 02:23:57;;;;;;;9.53;4.10;;;;;;;-9.35;100.00;103394.04;1659649;86;21097;-78
2022/12/05 02:27:02;;;;;;;17.82;4.80;;;;;;;-9.44;100.00;103393.52;1659121;86;21126;-78
2022/12/05 02:29:56;;;;;;;11.73;4.40;;;;;;;-9.48;100.00;103393.22;1659128;86;21060;-78
2022/12/05 02:32:39;;;;;;;10.90;4.03;;;;;;;-9.51;100.00;103395.95;1657511;86;21010;-78
2022/12/05 02:35:19;;;;;;;11.22;4.47;;;;;;;-9.46;100.00;103387.50;1659413;86;21553;-78
2022/12/05 02:38:02;;;;;;;10.85;4.33;;;;;;;-9.38;100.00;103385.91;1656991;86;20958;-78
2022/12/05 02:41:12;;;;;;;15.38;5.00;;;;;;;-9.44;100.00;103397.86;1658998;86;21260;-78
2022/12/05 02:43:49;;;;;;;13.78;4.25;;;;;;;-9.45;100.00;103393.56;1657755;86;21515;-78
2022/12/05 02:46:22;;;;;;;13.83;4.58;;;;;;;-9.39;100.00;103398.53;1656990;86;21491;-78
2022/12/05 02:48:52;;;;;;;10.40;4.42;;;;;;;-9.44;100.00;103384.38;1659369;86;21617;-78
2022/12/05 02:51:22;;;;;;;11.85;4.37;;;;;;;-9.41;100.00;103388.59;1659463;86;21057;-77
2022/12/05 02:53:51;;;;;;;12.88;4.35;;;;;;;-9.42;100.00;103392.13;1659394;86;21093;-78
2022/12/05 02:56:18;;;;;;;11.10;4.33;;;;;;;-9.47;100.00;103389.72;1659485;86;21089;-78
2022/12/05 02:58:50;;;;;;;10.85;4.30;;;;;;;-9.43;100.00;103389.98;1709327;83;20953;-78
2022/12/05 03:01:19;;;;;;;11.25;4.28;;;;;;;-9.45;100.00;103390.48;1712860;82;21505;-78
2022/12/05 03:03:45;;;;;;;10.10;4.10;;;;;;;-9.45;100.00;103382.66;1714138;82;20953;-78
2022/12/05 03:06:19;;;;;;;11.05;4.67;;;;;;;-9.48;100.00;103392.37;1703757;83;21158;-78
2022/12/05 03:08:55;;;;;;;8.68;3.95;;;;;;;-9.49;100.00;103390.69;1635163;87;21456;-78
2022/12/05 03:11:21;;;;;;;12.10;4.53;;;;;;;-9.53;100.00;103382.56;1634908;87;21608;-78
2022/12/05 03:13:55;;;;;;;10.78;4.50;;;;;;;-9.60;100.00;103384.11;1635070;87;21058;-78
2022/12/05 03:16:29;;;;;;;15.38;4.87;;;;;;;-9.49;100.00;103385.47;1635056;87;21688;-78
2022/12/05 03:19:00;;;;;;;10.58;3.92;;;;;;;-9.57;100.00;103385.75;1576593;91;21164;-79
2022/12/05 03:21:40;;;;;;;12.60;4.42;;;;;;;-9.56;100.00;103378.77;1573595;91;21064;-78
2022/12/05 03:24:19;;;;;;;8.80;4.20;;;;;;;-9.55;100.00;103377.42;1576708;91;21032;-78
2022/12/05 03:27:14;;;;;;;11.73;4.45;;;;;;;-9.53;100.00;103376.88;1576569;90;21546;-78
2022/12/05 03:29:54;;;;;;;13.65;4.25;;;;;;;-9.53;100.00;103383.41;1576529;91;21016;-78
2022/12/05 03:32:49;;;;;;;11.83;4.15;;;;;;;-9.62;100.00;103384.64;1574746;91;21117;-78
2022/12/05 03:35:38;;;;;;;12.75;4.53;;;;;;;-9.58;100.00;103393.20;1574111;91;21119;-78
2022/12/05 03:38:18;;;;;;;13.15;4.55;;;;;;;-9.56;100.00;103397.03;1534731;93;21158;-78
2022/12/05 03:40:55;;;;;;;12.80;4.67;;;;;;;-9.62;100.00;103398.12;1537641;92;21055;-79
2022/12/05 03:43:47;;;;;;;14.65;5.15;;;;;;;-9.69;100.00;103401.42;1537077;91;21126;-78
2022/12/05 03:46:28;;;;;;;10.88;4.87;;;;;;;-9.64;100.00;103392.97;1539184;93;21120;-78
2022/12/05 03:49:33;;;;;;;13.22;5.05;;;;;;;-9.67;100.00;103393.09;1502897;95;21108;-78
2022/12/05 03:52:12;;;;;;;11.25;4.83;;;;;;;-9.68;100.00;103386.61;1503079;95;21076;-79
2022/12/05 03:54:45;;;;;;;14.93;4.95;;;;;;;-9.62;100.00;103400.30;1503040;95;21025;-78
2022/12/05 03:57:23;;;;;;;15.40;5.25;;;;;;;-9.66;100.00;103396.55;1503238;94;21192;-78
2022/12/05 04:00:00;;;;;;;11.53;4.70;;;;;;;-9.67;100.00;103392.25;1503182;95;21286;-78
2022/12/05 04:05:20;;;;;;;12.37;4.40;;;;;;;-9.69;100.00;103394.90;1430593;98;21147;-78
2022/12/05 04:07:57;;;;;;;12.33;4.60;;;;;;;-9.67;100.00;103398.31;1459295;98;21168;-78
2022/12/05 04:10:28;;;;;;;10.98;4.08;;;;;;;-9.67;100.00;103399.62;1399767;102;21284;-78
2022/12/05 04:12:57;;;;;;;11.40;4.45;;;;;;;-9.72;100.00;103394.17;1405030;102;21454;-77
2022/12/05 04:17:02;;;;;;;12.10;4.35;;;;;;;-9.64;100.00;103391.67;1409174;100;21132;-78
2022/12/05 04:17:58;;;;;;;20.48;5.33;;;;;;;-9.72;100.00;103400.23;1416257;101;21108;-78
2022/12/05 04:23:16;;;;;;;10.05;4.45;;;;;;;-9.70;100.00;103402.80;1393038;103;21149;-78
2022/12/05 04:29:30;;;;;;;11.65;4.70;;;;;;;-9.68;100.00;103395.28;1410963;101;21084;-78
2022/12/05 04:32:01;;;;;;;12.07;4.60;;;;;;;-9.71;100.00;103387.58;1411226;101;21123;-78
2022/12/05 04:38:18;;;;;;;8.58;3.80;;;;;;;-9.75;100.00;103402.12;1411230;101;21122;-78
2022/12/05 04:40:50;;;;;;;10.63;3.77;;;;;;;-9.79;100.00;103389.66;1390722;103;21746;-78
2022/12/05 04:43:18;;;;;;;11.73;4.62;;;;;;;-9.77;100.00;103400.86;1382831;103;21143;-78
2022/12/05 04:45:45;;;;;;;12.07;4.62;;;;;;;-9.68;100.00;103392.67;1383183;103;21695;-78
2022/12/05 04:51:41;;;;;;;11.05;4.58;;;;;;;-9.71;100.00;103391.48;1383161;102;21263;-78
2022/12/05 04:54:40;;;;;;;11.75;4.40;;;;;;;-9.75;100.00;103395.13;1383112;103;21177;-78
2022/12/05 04:57:38;;;;;;;15.98;4.70;;;;;;;-9.70;100.00;103394.98;1369846;104;21707;-78
2022/12/05 05:00:07;;;;;;;13.48;5.10;;;;;;;-9.74;100.00;103399.89;1352031;104;21204;-78
2022/12/05 05:02:44;;;;;;;23.70;5.17;;;;;;;-9.72;100.00;103388.95;1423893;97;21170;-78
2022/12/05 05:05:13;;;;;;;14.65;4.70;;;;;;;-9.76;100.00;103388.66;1369852;104;21280;-78
2022/12/05 05:07:45;;;;;;;12.20;4.58;;;;;;;-9.76;100.00;103390.84;1366528;104;22159;-78
2022/12/05 05:10:16;;;;;;;15.10;4.75;;;;;;;-9.79;100.00;103387.05;1366933;102;21172;-78
2022/12/05 05:12:42;;;;;;;16.25;4.83;;;;;;;-9.76;100.00;103396.48;1383248;103;21143;-78
2022/12/05 05:15:09;;;;;;;13.25;4.55;;;;;;;-9.72;100.00;103393.72;1383689;103;21066;-78
2022/12/05 05:17:35;;;;;;;14.10;5.47;;;;;;;-9.76;100.00;103393.45;1383477;103;22143;-78
2022/12/05 05:22:49;;;;;;;13.28;5.22;;;;;;;-9.68;100.00;103386.16;1383458;103;21122;-78
2022/12/05 05:25:16;;;;;;;13.25;5.17;;;;;;;-9.65;100.00;103387.80;1363934;105;21154;-77
2022/12/05 05:27:45;;;;;;;11.03;4.22;;;;;;;-9.71;100.00;103390.19;1363740;105;21102;-78
2022/12/05 05:30:11;;;;;;;12.47;4.70;;;;;;;-9.71;100.00;103392.80;1363803;105;21210;-78
2022/12/05 05:32:37;;;;;;;11.70;4.30;;;;;;;-9.68;100.00;103393.98;1363858;105;21816;-78
2022/12/05 05:35:04;;;;;;;13.20;4.67;;;;;;;-9.63;100.00;103385.53;1364277;105;26770;-78
2022/12/05 05:37:30;;;;;;;15.13;4.58;;;;;;;-9.55;100.00;103389.16;1386541;102;21129;-78
2022/12/05 05:39:56;;;;;;;13.05;3.67;;;;;;;-9.53;100.00;103385.17;1400925;102;21616;-78
2022/12/05 05:42:22;;;;;;;13.38;4.12;;;;;;;-9.51;100.00;103387.28;1399111;102;21005;-78
2022/12/05 05:44:48;;;;;;;14.18;3.40;;;;;;;-9.34;100.00;103386.16;1399487;102;21066;-78
2022/12/05 05:47:14;;;;;;;14.53;3.90;;;;;;;-9.24;100.00;103380.95;1399314;102;21165;-77
2022/12/05 05:49:40;;;;;;;10.58;3.83;;;;;;;-9.08;100.00;103387.73;1399424;102;21131;-78
2022/12/05 05:52:06;;;;;;;10.50;3.20;;;;;;;-8.81;100.00;103394.03;1437192;98;21162;-78
2022/12/05 05:54:32;;;;;;;10.13;3.87;;;;;;;-8.66;100.00;103389.46;1460182;98;21077;-78
2022/12/05 06:04:19;;;;;;;9.63;3.40;;;;;;;-7.08;100.00;103392.70;1581195;90;21081;-79
2022/12/05 06:06:45;;;;;;;8.10;3.20;;;;;;;-5.56;100.00;103392.18;1581325;90;20894;-79
2022/12/05 06:12:52;;;;;;;11.05;3.35;;;;;;;-3.70;100.00;103398.32;1596923;89;21095;-80
2022/12/05 06:18:58;;;;;;;9.20;3.00;;;;;;;-1.96;100.00;103392.90;1597702;89;21085;-82
2022/12/05 06:25:12;;;;;;;10.68;3.45;;;;;;;-1.01;99.07;103392.63;1721406;83;21023;-80
2022/12/05 06:27:38;;;;;;;9.28;3.15;;;;;;;-0.08;91.12;103395.25;1722254;82;21466;-80
2022/12/05 06:33:19;;;;;;;12.20;3.90;;;;;;;-0.27;76.76;103394.01;1721547;83;21047;-81
2022/12/05 06:35:46;;;;;;;7.83;3.45;;;;;;;0.41;81.50;103390.88;1721831;82;20989;-81
2022/12/05 06:41:52;;;;;;;13.08;4.17;;;;;;;0.98;76.03;103393.37;1721470;83;20992;-81
2022/12/05 06:47:59;;;;;;;7.50;3.67;;;;;;;1.81;65.51;103392.52;1721619;83;21078;-81
2022/12/05 06:50:25;;;;;;;11.25;3.65;;;;;;;2.11;68.67;103376.19;1721748;82;21488;-82
2022/12/05 06:52:51;;;;;;;10.43;3.50;;;;;;;2.43;65.15;103386.64;1721755;83;21492;-82
2022/12/05 06:55:18;;;;;;;10.15;3.52;;;;;;;3.00;61.25;103369.06;1721465;82;22100;-82
2022/12/05 06:57:44;;;;;;;9.53;3.83;;;;;;;3.12;58.53;103379.08;1720128;83;20976;-82
2022/12/05 07:02:56;;;;;;;10.05;3.75;;;;;;;3.19;54.93;103377.02;1721725;83;21016;-82
2022/12/05 07:05:22;;;;;;;11.28;3.85;;;;;;;2.96;52.72;103385.79;1721701;83;20992;-82
2022/12/05 07:07:48;;;;;;;13.72;4.50;;;;;;;3.30;53.18;103382.70;1721791;82;21177;-82
2022/12/05 07:10:15;;;;;;;10.18;4.42;;;;;;;3.22;55.03;103385.23;1713291;83;21539;-82
2022/12/05 07:12:41;;;;;;;11.50;3.92;;;;;;;4.09;49.88;103388.16;1725212;82;20936;-82
2022/12/05 07:15:08;;;;;;;9.63;4.30;;;;;;;3.62;50.75;103385.02;1686069;85;21558;-82
2022/12/05 07:17:38;;;;;;;11.73;3.87;;;;;;;3.82;52.85;103383.14;1686484;85;21062;-82
2022/12/05 07:20:06;;;;;;;9.70;4.70;;;;;;;4.46;49.25;103374.72;1663355;85;21162;-81
2022/12/05 07:22:36;;;;;;;11.70;4.00;;;;;;;4.13;47.88;103378.02;1686222;85;21097;-82
2022/12/05 07:25:02;;;;;;;16.87;4.62;;;;;;;4.08;48.62;103377.11;1686418;85;21006;-82
2022/12/05 07:27:28;;;;;;;12.47;4.05;;;;;;;4.50;46.48;103362.77;1686407;85;21614;-82
2022/12/05 07:29:55;;;;;;;16.48;5.28;;;;;;;4.35;46.58;103365.58;1686376;85;21054;-82
2022/12/05 07:32:21;;;;;;;14.38;4.60;;;;;;;4.36;45.27;103360.61;1686368;85;21577;-81
2022/12/05 07:34:48;;;;;;;14.25;4.25;;;;;;;4.30;46.14;103358.54;1686159;85;21650;-82
2022/12/05 07:37:14;;;;;;;13.98;4.70;;;;;;;4.29;47.65;103359.05;1686503;85;21059;-82
2022/12/05 07:39:40;;;;;;;17.35;5.30;;;;;;;4.96;46.98;103359.52;1705810;83;20968;-82
2022/12/05 07:42:06;;;;;;;15.60;6.50;;;;;;;5.20;45.07;103351.34;1727039;83;21071;-82
2022/12/05 07:44:33;;;;;;;8.83;4.47;;;;;;;5.73;44.83;103355.70;1727096;83;22065;-82
2022/12/05 07:46:59;;;;;;;11.30;5.47;;;;;;;5.44;43.56;103362.71;1726721;82;20988;-82
2022/12/05 07:49:26;;;;;;;13.32;5.62;;;;;;;5.59;44.20;103354.47;1726898;83;20948;-82
2022/12/05 07:51:52;;;;;;;14.73;5.50;;;;;;;5.52;43.03;103353.91;1727096;83;20993;-82
2022/12/05 07:54:18;;;;;;;11.00;5.42;;;;;;;5.78;43.36;103349.88;1710425;83;20928;-82
2022/12/05 07:56:44;;;;;;;15.35;5.12;;;;;;;5.46;43.13;103349.53;1727048;83;21123;-82
2022/12/05 08:02:50;;;;;;;12.33;4.25;;;;;;;5.68;44.11;103346.00;1726627;83;20980;-82
2022/12/05 08:05:16;;;;;;;13.03;5.47;;;;;;;5.99;42.01;103356.20;1727071;82;21464;-82
2022/12/05 08:07:42;;;;;;;18.10;5.30;;;;;;;5.68;42.51;103347.33;1718615;83;20940;-81
2022/12/05 08:17:32;;;;;;;9.75;4.28;;;;;;;4.36;41.82;103353.10;1712152;83;21565;-80
2022/12/05 08:23:40;;;;;;;11.15;4.30;;;;;;;-0.20;45.43;103367.91;1711917;83;21492;-80
2022/12/05 08:26:16;;;;;;;13.98;4.03;;;;;;;-1.64;48.23;103346.99;1712162;83;21083;-81
2022/12/05 08:28:43;;;;;;;13.68;4.45;;;;;;;-2.49;50.45;103340.22;1711380;83;21433;-80
2022/12/05 08:31:18;;;;;;;24.23;4.78;;;;;;;-2.87;51.79;103350.27;1712586;83;21172;-79
2022/12/05 08:33:45;;;;;;;16.17;5.60;;;;;;;-3.40;53.87;103330.93;1712156;83;21004;-80
2022/12/05 08:36:14;;;;;;;17.87;5.72;;;;;;;-3.58;55.50;103328.18;1712232;82;21552;-79
2022/12/05 08:38:41;;;;;;;14.30;5.15;;;;;;;-3.63;56.95;103321.87;1712444;83;21223;-79
2022/12/05 08:41:12;;;;;;;18.87;6.08;;;;;;;-3.75;58.18;103322.19;1711893;83;20984;-79
2022/12/05 08:43:38;;;;;;;16.77;5.08;;;;;;;-3.95;60.31;103323.92;1712170;83;20956;-79
2022/12/05 08:46:05;;;;;;;16.35;5.17;;;;;;;-4.06;61.54;103321.95;1712346;83;21103;-79
2022/12/05 08:48:32;;;;;;;16.60;4.78;;;;;;;-4.23;64.17;103319.55;1707675;83;21552;-79
2022/12/05 08:51:06;;;;;;;17.00;4.90;;;;;;;-4.32;67.04;103311.75;1712339;83;21139;-79
2022/12/05 08:53:32;;;;;;;26.42;5.22;;;;;;;-4.29;67.38;103315.52;1584610;89;21059;-79
2022/12/05 08:56:04;;;;;;;20.17;4.58;;;;;;;-4.46;70.52;103306.49;1583444;90;21488;-79
2022/12/05 08:58:31;;;;;;;14.18;4.25;;;;;;;-4.37;72.59;103309.87;1583718;90;21106;-79
2022/12/05 09:01:13;;;;;;;15.43;4.90;;;;;;;-4.24;72.10;103312.10;1584507;89;21567;-79
2022/12/05 09:03:41;;;;;;;16.37;4.90;;;;;;;-4.41;74.19;103309.22;1584469;89;21188;-79
2022/12/05 09:06:15;;;;;;;12.18;4.40;;;;;;;-4.25;74.86;103303.84;1584390;89;21153;-79
2022/12/05 09:08:43;;;;;;;17.20;5.40;;;;;;;-4.33;76.67;103312.67;1584237;89;21043;-79
2022/12/05 09:11:14;;;;;;;19.80;5.92;;;;;;;-4.42;78.83;103285.14;1583929;90;21113;-79
2022/12/05 09:13:41;;;;;;;20.43;5.97;;;;;;;-4.29;80.02;103285.69;1504451;94;21069;-79
2022/12/05 09:16:14;;;;;;;21.48;5.95;;;;;;;-4.37;81.78;103296.71;1502285;94;21708;-79
2022/12/05 09:18:40;;;;;;;22.48;5.30;;;;;;;-4.36;82.35;103286.55;1502241;94;21011;-79
2022/12/05 09:21:12;;;;;;;17.65;5.33;;;;;;;-4.21;82.51;103274.22;1501754;94;21154;-79
2022/12/05 09:23:40;;;;;;;16.80;5.15;;;;;;;-4.11;83.72;103296.41;1502193;94;21077;-79
2022/12/05 09:26:10;;;;;;;19.55;5.60;;;;;;;-4.15;85.07;103277.77;1502173;95;21086;-79
2022/12/05 09:28:37;;;;;;;16.27;5.65;;;;;;;-4.12;86.29;103271.87;1501840;95;22036;-79
2022/12/05 09:31:11;;;;;;;18.73;5.87;;;;;;;-4.03;86.32;103261.23;1501940;95;21074;-79
2022/12/05 09:33:38;;;;;;;16.17;5.28;;;;;;;-3.97;87.94;103268.73;1534350;91;21087;-81
2022/12/05 09:36:09;;;;;;;21.45;5.95;;;;;;;-3.88;85.93;103256.77;1540699;92;21107;-81
2022/12/05 09:38:35;;;;;;;16.32;5.47;;;;;;;-3.78;85.84;103260.95;1535303;93;21145;-81
2022/12/05 09:42:03;;;;;;;20.50;5.95;;;;;;;-3.80;86.23;103247.87;1535685;93;21014;-81
2022/12/05 09:51:16;;;;;;;19.20;5.75;;;;;;;-3.66;85.96;103250.45;1504661;95;21177;-81
2022/12/05 09:53:43;;;;;;;23.20;6.25;;;;;;;-3.63;85.82;103240.19;1506081;95;21158;-81
2022/12/05 09:56:24;;;;;;;19.82;5.65;;;;;;;-3.52;84.48;103231.58;1506059;95;21190;-81
2022/12/05 09:58:53;;;;;;;19.40;5.62;;;;;;;-3.48;85.11;103229.10;1455363;98;21113;-81
2022/12/05 10:01:34;;;;;;;16.23;5.03;;;;;;;-3.45;85.31;103220.98;1417839;100;21100;-81
2022/12/05 10:04:21;;;;;;;17.48;5.72;;;;;;;-3.47;85.56;103218.47;1413956;101;21713;-81
2022/12/05 10:07:40;;;;;;;19.80;6.28;;;;;;;-3.33;85.22;103218.84;1413793;101;21203;-81
2022/12/05 10:14:09;;;;;;;20.82;5.17;;;;;;;-3.36;84.57;103212.46;1415121;100;21263;-80
2022/12/05 10:16:44;;;;;;;25.75;6.50;;;;;;;-3.33;84.90;103208.30;1399193;102;21086;-81
2022/12/05 10:19:18;;;;;;;14.18;5.08;;;;;;;-3.33;84.38;103200.39;1399531;102;21216;-81
2022/12/05 10:22:13;;;;;;;13.78;5.53;;;;;;;-3.18;82.61;103200.30;1401557;102;21164;-81
2022/12/05 10:24:51;;;;;;;22.35;5.80;;;;;;;-3.26;83.71;103191.12;1401637;102;21167;-81
2022/12/05 10:27:29;;;;;;;21.87;5.85;;;;;;;-3.24;84.14;103191.84;1343517;106;21157;-79
2022/12/05 10:30:14;;;;;;;24.45;6.25;;;;;;;-3.15;83.30;103200.09;1290263;111;21177;-79
2022/12/05 10:32:57;;;;;;;20.65;5.12;;;;;;;-3.13;83.37;103182.37;1290423;111;21638;-79
2022/12/05 10:35:33;;;;;;;19.52;3.80;;;;;;;-3.13;84.52;103192.92;1312933;106;21236;-79
2022/12/05 10:38:06;;;;;;;15.05;4.65;;;;;;;-3.10;83.60;103190.08;1351324;104;21325;-79
2022/12/05 10:40:39;;;;;;;17.12;4.60;;;;;;;-3.05;82.19;103182.70;1349504;106;26568;-79
2022/12/05 10:43:08;;;;;;;15.25;4.80;;;;;;;-2.96;82.59;103188.66;1379888;102;21736;-80
2022/12/05 10:45:44;;;;;;;13.40;4.37;;;;;;;-2.95;81.70;103179.77;1372763;104;21177;-80
2022/12/05 10:48:15;;;;;;;21.00;5.72;;;;;;;-2.82;81.91;103179.30;1459437;98;21596;-79
2022/12/05 10:50:44;;;;;;;16.67;4.50;;;;;;;-2.85;80.68;103183.48;1459091;98;21099;-80
2022/12/05 10:53:24;;;;;;;17.67;4.58;;;;;;;-2.85;80.43;103172.92;1459428;98;21095;-82
2022/12/05 10:59:46;;;;;;;20.60;5.55;;;;;;;-2.84;80.51;103173.28;1539023;93;21255;-79
2022/12/05 11:02:26;;;;;;;20.15;4.78;;;;;;;-2.78;79.33;103171.53;1540689;92;21044;-79
2022/12/05 11:08:33;;;;;;;36.63;6.15;;;;;;;-2.80;79.52;103162.86;1475039;97;21101;-79
2022/12/05 11:11:07;;;;;;;19.95;6.05;;;;;;;-2.79;79.68;103165.05;1475476;95;21084;-80
2022/12/05 11:13:34;;;;;;;16.30;5.25;;;;;;;-2.69;78.78;103158.16;1410118;99;21150;-79
2022/12/05 11:16:00;;;;;;;13.43;3.98;;;;;;;-2.55;78.51;103146.62;1422324;100;21207;-81
2022/12/05 11:18:33;;;;;;;15.40;4.50;;;;;;;-2.56;77.41;103152.38;1422385;100;21847;-79
2022/12/05 11:21:12;;;;;;;15.35;4.05;;;;;;;-2.57;76.99;103148.52;1422184;100;21727;-79
2022/12/05 11:23:39;;;;;;;16.82;5.03;;;;;;;-2.54;76.56;103139.90;1422415;100;21119;-79
2022/12/05 11:26:17;;;;;;;17.07;4.28;;;;;;;-2.59;76.30;103140.73;1435998;97;21140;-79
2022/12/05 11:28:43;;;;;;;20.88;5.00;;;;;;;-2.44;75.56;103142.73;1403038;102;21133;-79
2022/12/05 11:31:17;;;;;;;17.02;4.75;;;;;;;-2.40;74.37;103138.91;1404143;102;21679;-79
2022/12/05 11:34:00;;;;;;;15.20;4.80;;;;;;;-2.42;74.20;103139.97;1401533;102;21065;-79
2022/12/05 11:36:34;;;;;;;24.15;6.53;;;;;;;-2.52;74.81;103131.41;1402869;102;21206;-79
2022/12/05 11:39:00;;;;;;;28.65;6.10;;;;;;;-2.49;74.69;103130.34;1350981;104;21688;-79
2022/12/05 11:41:49;;;;;;;17.42;4.90;;;;;;;-2.54;75.20;103124.55;1359185;104;21077;-79
2022/12/05 11:44:33;;;;;;;26.57;6.17;;;;;;;-2.40;75.20;103127.52;1358925;104;21653;-79
2022/12/05 11:47:30;;;;;;;22.00;4.62;;;;;;;-2.36;74.80;103127.16;1354850;105;21140;-79
2022/12/05 11:50:36;;;;;;;19.23;5.25;;;;;;;-2.26;73.88;103124.70;1356184;102;21672;-79
2022/12/05 11:53:25;;;;;;;22.42;5.65;;;;;;;-2.36;73.58;103123.20;1423901;99;21784;-80
2022/12/05 11:56:14;;;;;;;20.23;4.53;;;;;;;-2.21;72.82;103114.63;1429271;99;21658;-79
2022/12/05 11:59:01;;;;;;;15.98;4.72;;;;;;;-2.35;73.01;103115.66;1404607;101;21128;-79
2022/12/05 12:02:01;;;;;;;25.88;6.62;;;;;;;-2.32;72.60;103111.48;1395886;100;22305;-79
2022/12/05 12:04:55;;;;;;;22.30;5.28;;;;;;;-2.31;72.64;103102.59;1406132;101;21105;-79
2022/12/05 12:07:36;;;;;;;25.82;5.87;;;;;;;-2.32;72.61;103100.08;1340439;106;21552;-79
2022/12/05 12:10:19;;;;;;;22.73;5.17;;;;;;;-2.27;72.54;103104.52;1344796;105;21840;-79
2022/12/05 12:12:54;;;;;;;16.57;5.28;;;;;;;-2.18;71.83;103095.08;1359131;105;21125;-79
2022/12/05 12:15:43;;;;;;;17.67;5.33;;;;;;;-2.32;72.31;103102.23;1333057;107;21165;-79
2022/12/05 12:18:39;;;;;;;25.27;6.75;;;;;;;-2.30;72.54;103097.66;1333175;106;21120;-79
2022/12/05 12:21:32;;;;;;;14.45;4.78;;;;;;;-2.29;72.86;103103.81;1305803;109;21822;-79
2022/12/05 12:24:19;;;;;;;17.35;3.65;;;;;;;-2.21;72.47;103106.70;1291504;111;21236;-80
2022/12/05 12:27:04;;;;;;;23.38;5.80;;;;;;;-2.18;72.12;103103.83;1280400;110;21254;-79
2022/12/05 12:29:51;;;;;;;15.93;5.47;;;;;;;-2.18;71.84;103101.19;1271175;111;21142;-79
2022/12/05 12:32:51;;;;;;;21.77;5.33;;;;;;;-2.24;72.22;103093.73;1286025;109;21672;-79
2022/12/05 12:35:56;;;;;;;29.87;6.60;;;;;;;-2.22;72.10;103105.03;1331576;105;21642;-79
2022/12/05 12:38:36;;;;;;;13.28;4.35;;;;;;;-2.20;72.44;103101.80;1272209;112;21240;-79
2022/12/05 12:41:19;;;;;;;15.35;3.98;;;;;;;-2.12;71.49;103089.33;1272360;112;21308;-79
2022/12/05 12:44:13;;;;;;;13.65;4.47;;;;;;;-2.03;70.92;103104.97;1272587;112;21135;-79
2022/12/05 12:46:53;;;;;;;14.10;4.53;;;;;;;-2.14;71.35;103095.23;1272402;112;21194;-79
2022/12/05 12:49:42;;;;;;;25.25;7.03;;;;;;;-2.18;71.33;103095.91;1272395;112;21162;-80
2022/12/05 12:52:19;;;;;;;20.50;5.15;;;;;;;-2.12;71.16;103095.94;1243872;114;21200;-79
2022/12/05 12:55:15;;;;;;;15.32;4.40;;;;;;;-2.21;71.20;103101.42;1230122;114;21285;-79
2022/12/05 13:01:41;;;;;;;15.98;3.98;;;;;;;-2.28;71.36;103094.92;1211028;117;21207;-79
2022/12/05 13:04:18;;;;;;;21.17;4.62;;;;;;;-2.38;71.42;103093.89;1245766;110;21230;-80
2022/12/05 13:06:59;;;;;;;14.63;3.77;;;;;;;-2.44;71.61;103095.67;1275241;112;21208;-79
2022/12/05 13:09:36;;;;;;;16.90;4.03;;;;;;;-2.44;71.18;103088.62;1276884;112;21961;-79
2022/12/05 13:12:14;;;;;;;11.22;3.47;;;;;;;-2.48;70.87;103097.70;1241256;115;21264;-79